Time;durP1;ratioP1;P1;durP2;ratioP2;P2;SDS_P1;SDS_P2;PMS_P1;PMS_P2;Temp;Humidity;BMP_temperature;BMP_pressure;BME280_temperature;BME280_humidity;BME280_pressure;Samples;Min_cycle;Max_cycle;Signal;HPM_P1;HPM_P2
2023/03/02 00:01:03;;;;;;;4.57;2.57;;;;;;;;;;5244333;28;20047;-74
2023/03/02 00:03:36;;;;;;;4.90;2.80;;;;;;;;;;5243447;28;20101;-73
2023/03/02 00:06:07;;;;;;;5.13;2.40;;;;;;;;;;5243280;28;20021;-74
2023/03/02 00:08:39;;;;;;;5.03;2.47;;;;;;;;;;5243515;28;20029;-74
2023/03/02 00:11:10;;;;;;;6.93;3.60;;;;;;;;;;5244039;28;20108;-74
2023/03/02 00:13:41;;;;;;;4.23;2.33;;;;;;;;;;5243028;28;20512;-75
2023/03/02 00:16:12;;;;;;;7.13;2.30;;;;;;;;;;5243993;28;20017;-74
2023/03/02 00:18:44;;;;;;;6.40;2.80;;;;;;;;;;5243678;28;20026;-74
2023/03/02 00:21:15;;;;;;;4.97;2.40;;;;;;;;;;5243302;28;20096;-73
2023/03/02 00:23:46;;;;;;;5.57;2.43;;;;;;;;;;5243318;28;20014;-74
2023/03/02 00:26:18;;;;;;;4.30;2.40;;;;;;;;;;5243782;28;20087;-73
2023/03/02 00:28:49;;;;;;;4.67;2.37;;;;;;;;;;5242468;28;20014;-74
2023/03/02 00:31:20;;;;;;;5.17;2.80;;;;;;;;;;5243716;28;20097;-74
2023/03/02 00:33:53;;;;;;;4.77;2.50;;;;;;;;;;5242587;28;20018;-73
2023/03/02 00:36:24;;;;;;;6.30;3.10;;;;;;;;;;5243106;28;20021;-74
2023/03/02 00:38:56;;;;;;;4.10;2.33;;;;;;;;;;5242823;28;20091;-73
2023/03/02 00:41:27;;;;;;;5.57;2.90;;;;;;;;;;5241169;28;20029;-74
2023/03/02 00:43:59;;;;;;;5.30;2.37;;;;;;;;;;5243542;28;20456;-73
2023/03/02 00:46:30;;;;;;;6.60;3.10;;;;;;;;;;5242660;28;20034;-74
2023/03/02 00:49:01;;;;;;;5.77;3.07;;;;;;;;;;5242418;28;20345;-74
2023/03/02 00:51:32;;;;;;;5.57;2.70;;;;;;;;;;5242614;28;20069;-74
2023/03/02 00:54:03;;;;;;;5.73;2.47;;;;;;;;;;5243177;28;20025;-73
2023/03/02 00:56:35;;;;;;;4.43;2.67;;;;;;;;;;5241679;28;20063;-74
2023/03/02 00:59:09;;;;;;;4.67;2.47;;;;;;;;;;5242943;28;20501;-74
2023/03/02 01:01:41;;;;;;;5.97;2.73;;;;;;;;;;5241283;28;20039;-73
2023/03/02 01:04:12;;;;;;;5.40;2.53;;;;;;;;;;5242879;28;20473;-73
2023/03/02 01:06:46;;;;;;;6.42;2.92;;;;;;;;;;5242363;28;20127;-73
2023/03/02 01:09:17;;;;;;;6.73;2.93;;;;;;;;;;5242323;28;20048;-74
2023/03/02 01:11:48;;;;;;;5.53;2.80;;;;;;;;;;5242305;28;20017;-73
2023/03/02 01:14:19;;;;;;;5.70;2.97;;;;;;;;;;5242346;28;20048;-73
2023/03/02 01:16:51;;;;;;;6.47;2.80;;;;;;;;;;5241561;28;20037;-73
2023/03/02 01:19:22;;;;;;;5.13;2.57;;;;;;;;;;5242714;28;20487;-73
2023/03/02 01:21:53;;;;;;;5.17;2.30;;;;;;;;;;5242512;28;20041;-74
2023/03/02 01:24:24;;;;;;;6.97;2.97;;;;;;;;;;5241485;28;20095;-74
2023/03/02 01:26:55;;;;;;;4.67;2.50;;;;;;;;;;5242864;28;20033;-74
2023/03/02 01:29:27;;;;;;;7.20;2.57;;;;;;;;;;5242217;28;20017;-74
2023/03/02 01:31:58;;;;;;;6.10;3.17;;;;;;;;;;5242113;28;20014;-73
2023/03/02 01:34:30;;;;;;;5.87;2.80;;;;;;;;;;5242410;28;20010;-74
2023/03/02 01:37:01;;;;;;;5.97;3.07;;;;;;;;;;5241832;28;20450;-74
2023/03/02 01:39:32;;;;;;;5.13;3.43;;;;;;;;;;5241999;28;20017;-73
2023/03/02 01:42:03;;;;;;;5.03;2.67;;;;;;;;;;5242460;28;20018;-73
2023/03/02 01:44:40;;;;;;;5.13;2.53;;;;;;;;;;5240997;28;20061;-74
2023/03/02 01:47:14;;;;;;;8.37;4.87;;;;;;;;;;5242187;28;20044;-73
2023/03/02 01:49:48;;;;;;;6.40;2.70;;;;;;;;;;5241763;28;20025;-74
2023/03/02 01:52:19;;;;;;;4.23;2.70;;;;;;;;;;5240648;28;20060;-74
2023/03/02 01:54:52;;;;;;;6.20;3.00;;;;;;;;;;5241830;28;20025;-73
2023/03/02 01:57:25;;;;;;;4.23;2.83;;;;;;;;;;5241769;28;20029;-73
2023/03/02 01:59:59;;;;;;;5.03;3.23;;;;;;;;;;5241332;28;20501;-74
2023/03/02 02:02:31;;;;;;;5.77;3.50;;;;;;;;;;5241380;28;20030;-73
2023/03/02 02:05:02;;;;;;;6.57;2.87;;;;;;;;;;5240748;28;20361;-74
2023/03/02 02:07:34;;;;;;;7.13;2.90;;;;;;;;;;5241350;28;20380;-74
2023/03/02 02:10:06;;;;;;;6.00;2.70;;;;;;;;;;5241857;28;20057;-73
2023/03/02 02:12:37;;;;;;;6.47;3.30;;;;;;;;;;5240501;28;20024;-74
2023/03/02 02:15:09;;;;;;;5.63;3.37;;;;;;;;;;5241495;28;20021;-73
2023/03/02 02:17:41;;;;;;;7.07;3.90;;;;;;;;;;5241070;28;20026;-73
2023/03/02 02:20:19;;;;;;;5.40;3.30;;;;;;;;;;5240755;28;20409;-74
2023/03/02 02:22:50;;;;;;;5.63;3.53;;;;;;;;;;5241401;28;20068;-73
2023/03/02 02:25:21;;;;;;;5.72;3.22;;;;;;;;;;5241019;28;20030;-74
2023/03/02 02:27:53;;;;;;;6.82;3.22;;;;;;;;;;5240329;28;20057;-74
2023/03/02 02:30:25;;;;;;;7.07;3.53;;;;;;;;;;5240859;28;20017;-74
2023/03/02 02:32:57;;;;;;;5.57;3.60;;;;;;;;;;5241109;28;20021;-74
2023/03/02 02:35:29;;;;;;;5.60;3.30;;;;;;;;;;5240130;28;20052;-74
2023/03/02 02:38:02;;;;;;;6.27;3.10;;;;;;;;;;5241016;28;20018;-73
2023/03/02 02:40:53;;;;;;;5.97;3.33;;;;;;;;;;5239478;28;20109;-74
2023/03/02 02:43:26;;;;;;;6.80;3.77;;;;;;;;;;5240565;28;20044;-74
2023/03/02 02:45:58;;;;;;;5.53;3.97;;;;;;;;;;5240757;28;20080;-74
2023/03/02 02:48:30;;;;;;;7.67;3.97;;;;;;;;;;5239532;28;20018;-73
2023/03/02 02:51:02;;;;;;;6.90;3.67;;;;;;;;;;5240879;28;20049;-74
2023/03/02 02:53:36;;;;;;;8.33;4.20;;;;;;;;;;5240356;28;20022;-74
2023/03/02 02:56:09;;;;;;;7.77;4.90;;;;;;;;;;5240160;28;20048;-74
2023/03/02 02:58:45;;;;;;;6.57;4.10;;;;;;;;;;5240305;28;20023;-75
2023/03/02 03:01:19;;;;;;;9.10;5.73;;;;;;;;;;5240194;28;20518;-73
2023/03/02 03:03:55;;;;;;;8.00;5.10;;;;;;;;;;5239822;28;20462;-74
2023/03/02 03:06:29;;;;;;;8.87;5.47;;;;;;;;;;5239962;28;20432;-74
2023/03/02 03:09:00;;;;;;;10.43;6.77;;;;;;;;;;5239963;28;20013;-75
2023/03/02 03:11:33;;;;;;;10.23;5.83;;;;;;;;;;5239925;28;20029;-75
2023/03/02 03:14:07;;;;;;;12.23;6.13;;;;;;;;;;5240918;28;20132;-75
2023/03/02 03:16:40;;;;;;;10.87;6.50;;;;;;;;;;5239587;28;20061;-75
2023/03/02 03:19:25;;;;;;;10.33;7.27;;;;;;;;;;5240884;28;20021;-75
2023/03/02 03:21:58;;;;;;;12.40;8.17;;;;;;;;;;5240805;28;20025;-75
2023/03/02 03:24:31;;;;;;;13.30;8.80;;;;;;;;;;5239528;28;20040;-74
2023/03/02 03:27:04;;;;;;;13.57;9.17;;;;;;;;;;5240754;28;20040;-74
2023/03/02 03:29:36;;;;;;;14.33;9.90;;;;;;;;;;5239392;28;20045;-74
2023/03/02 03:32:07;;;;;;;16.00;10.43;;;;;;;;;;5240440;28;20075;-75
2023/03/02 03:34:41;;;;;;;18.37;11.00;;;;;;;;;;5239985;28;20041;-74
2023/03/02 03:37:14;;;;;;;20.97;12.93;;;;;;;;;;5239865;28;20100;-74
2023/03/02 03:39:46;;;;;;;20.60;13.93;;;;;;;;;;5239717;28;20014;-74
2023/03/02 03:42:17;;;;;;;25.77;14.73;;;;;;;;;;5240411;28;20375;-74
2023/03/02 03:44:48;;;;;;;24.00;15.20;;;;;;;;;;5239191;28;20021;-74
2023/03/02 03:47:19;;;;;;;24.67;16.00;;;;;;;;;;5240288;28;20033;-73
2023/03/02 03:49:50;;;;;;;25.27;16.10;;;;;;;;;;5239906;28;20036;-73
2023/03/02 03:52:29;;;;;;;28.10;16.20;;;;;;;;;;5239247;28;20021;-74
2023/03/02 03:55:00;;;;;;;28.95;17.70;;;;;;;;;;5240229;28;20052;-74
2023/03/02 03:57:31;;;;;;;28.03;18.53;;;;;;;;;;5238911;28;20107;-73
2023/03/02 04:00:05;;;;;;;26.80;18.00;;;;;;;;;;5239957;28;20028;-73
2023/03/02 04:02:36;;;;;;;28.97;18.00;;;;;;;;;;5239467;28;20018;-74
2023/03/02 04:05:08;;;;;;;29.20;19.77;;;;;;;;;;5239303;28;20023;-73
2023/03/02 04:07:39;;;;;;;28.63;18.83;;;;;;;;;;5239317;28;20353;-74
2023/03/02 04:10:11;;;;;;;29.93;19.60;;;;;;;;;;5239950;28;20539;-73
2023/03/02 04:12:42;;;;;;;28.63;18.43;;;;;;;;;;5238754;28;20365;-74
2023/03/02 04:15:15;;;;;;;29.60;20.20;;;;;;;;;;5242787;28;20021;-74
2023/03/02 04:17:46;;;;;;;31.57;19.60;;;;;;;;;;5243131;28;20021;-74
2023/03/02 04:20:18;;;;;;;31.20;20.17;;;;;;;;;;5243168;28;20407;-74
2023/03/02 04:22:50;;;;;;;33.00;19.73;;;;;;;;;;5243358;28;20018;-73
2023/03/02 04:25:23;;;;;;;33.37;21.07;;;;;;;;;;5243521;28;20345;-73
2023/03/02 04:27:54;;;;;;;31.77;20.97;;;;;;;;;;5242668;28;20484;-73
2023/03/02 04:30:25;;;;;;;32.03;21.23;;;;;;;;;;5242711;28;20063;-73
2023/03/02 04:32:57;;;;;;;30.07;19.93;;;;;;;;;;5242937;28;20017;-74
2023/03/02 04:35:28;;;;;;;31.17;20.67;;;;;;;;;;5243136;28;20523;-73
2023/03/02 04:37:59;;;;;;;34.07;21.13;;;;;;;;;;5243669;28;20018;-73
2023/03/02 04:40:30;;;;;;;29.40;19.27;;;;;;;;;;5242107;28;20025;-73
2023/03/02 04:43:02;;;;;;;32.80;20.83;;;;;;;;;;5243562;28;20546;-73
2023/03/02 04:45:33;;;;;;;31.87;19.90;;;;;;;;;;5242819;28;20057;-74
2023/03/02 04:48:05;;;;;;;30.63;19.40;;;;;;;;;;5242678;28;20013;-74
2023/03/02 04:50:37;;;;;;;31.47;19.60;;;;;;;;;;5242376;28;20064;-74
2023/03/02 04:53:09;;;;;;;30.80;19.07;;;;;;;;;;5243090;28;20016;-73
2023/03/02 04:55:40;;;;;;;28.73;18.23;;;;;;;;;;5241711;28;20021;-74
2023/03/02 04:58:11;;;;;;;34.00;20.23;;;;;;;;;;5243299;28;20018;-73
2023/03/02 05:00:42;;;;;;;29.77;18.43;;;;;;;;;;5241682;28;20101;-74
2023/03/02 05:03:14;;;;;;;25.67;17.60;;;;;;;;;;5243043;28;20017;-73
2023/03/02 05:05:45;;;;;;;29.10;19.87;;;;;;;;;;5242331;28;20029;-73
2023/03/02 05:08:16;;;;;;;29.97;19.17;;;;;;;;;;5241944;28;20057;-73
2023/03/02 05:10:47;;;;;;;28.30;18.03;;;;;;;;;;5242329;28;20072;-73
2023/03/02 05:13:18;;;;;;;29.43;17.53;;;;;;;;;;5242969;28;20075;-74
2023/03/02 05:15:50;;;;;;;29.73;18.53;;;;;;;;;;5241273;28;20041;-74
2023/03/02 05:18:22;;;;;;;29.53;18.77;;;;;;;;;;5242120;28;20045;-74
2023/03/02 05:20:53;;;;;;;30.47;18.60;;;;;;;;;;5242446;28;20021;-74
2023/03/02 05:23:27;;;;;;;30.57;19.03;;;;;;;;;;5241477;28;20021;-74
2023/03/02 05:25:58;;;;;;;30.07;18.63;;;;;;;;;;5241808;28;20476;-74
2023/03/02 05:28:29;;;;;;;28.97;19.67;;;;;;;;;;5241927;28;20033;-74
2023/03/02 05:31:01;;;;;;;29.40;19.80;;;;;;;;;;5241539;28;20080;-74
2023/03/02 05:33:32;;;;;;;37.70;22.87;;;;;;;;;;5241796;28;20451;-74
2023/03/02 05:36:04;;;;;;;33.03;21.53;;;;;;;;;;5241700;28;20465;-74
2023/03/02 05:38:35;;;;;;;34.73;21.17;;;;;;;;;;5241584;28;20021;-74
2023/03/02 05:41:07;;;;;;;34.00;21.50;;;;;;;;;;5242264;28;20033;-74
2023/03/02 05:43:38;;;;;;;35.83;22.40;;;;;;;;;;5240625;28;20044;-74
2023/03/02 05:46:10;;;;;;;33.43;21.30;;;;;;;;;;5242386;28;20357;-74
2023/03/02 05:48:41;;;;;;;35.70;21.90;;;;;;;;;;5241439;28;20044;-74
2023/03/02 05:51:12;;;;;;;36.20;22.50;;;;;;;;;;5241098;28;20400;-74
2023/03/02 05:53:43;;;;;;;37.93;22.13;;;;;;;;;;5241397;28;20022;-74
2023/03/02 05:56:15;;;;;;;37.97;23.40;;;;;;;;;;5241928;28;20025;-74
2023/03/02 05:58:46;;;;;;;34.33;21.40;;;;;;;;;;5240735;28;20065;-73
2023/03/02 06:01:17;;;;;;;36.63;21.60;;;;;;;;;;5241945;28;20372;-74
2023/03/02 06:03:48;;;;;;;37.37;22.43;;;;;;;;;;5241308;28;20025;-74
2023/03/02 06:06:19;;;;;;;34.40;21.70;;;;;;;;;;5240518;28;20484;-73
2023/03/02 06:08:51;;;;;;;34.43;21.53;;;;;;;;;;5241744;28;20342;-74
2023/03/02 06:11:22;;;;;;;40.63;24.23;;;;;;;;;;5240782;28;20029;-74
2023/03/02 06:13:53;;;;;;;38.93;24.70;;;;;;;;;;5241492;28;20052;-74
2023/03/02 06:16:24;;;;;;;36.40;22.53;;;;;;;;;;5241104;28;20595;-75
2023/03/02 06:18:55;;;;;;;41.20;25.07;;;;;;;;;;5240608;28;20026;-75
2023/03/02 06:21:26;;;;;;;39.53;23.53;;;;;;;;;;5241035;28;20029;-74
2023/03/02 06:23:58;;;;;;;43.33;25.13;;;;;;;;;;5241402;28;20160;-74
2023/03/02 06:26:29;;;;;;;40.50;24.13;;;;;;;;;;5240176;28;20395;-75
2023/03/02 06:29:00;;;;;;;40.97;24.70;;;;;;;;;;5241380;28;20025;-74
2023/03/02 06:31:31;;;;;;;40.70;23.93;;;;;;;;;;5240628;28;20100;-74
2023/03/02 06:34:02;;;;;;;43.00;24.83;;;;;;;;;;5240536;28;20028;-74
2023/03/02 06:36:37;;;;;;;46.80;26.33;;;;;;;;;;5240682;28;20504;-74
2023/03/02 06:39:14;;;;;;;40.10;23.67;;;;;;;;;;5240568;28;20329;-75
2023/03/02 06:41:46;;;;;;;41.77;24.97;;;;;;;;;;5240300;28;20113;-73
2023/03/02 06:44:18;;;;;;;45.97;27.20;;;;;;;;;;5240710;28;20018;-73
2023/03/02 06:46:49;;;;;;;43.63;25.07;;;;;;;;;;5239544;28;20504;-73
2023/03/02 06:49:20;;;;;;;41.70;24.30;;;;;;;;;;5240418;28;20021;-74
2023/03/02 06:51:51;;;;;;;43.93;25.00;;;;;;;;;;5240346;28;20385;-75
2023/03/02 06:54:22;;;;;;;41.10;23.10;;;;;;;;;;5239591;28;20014;-75
2023/03/02 06:56:55;;;;;;;41.73;23.50;;;;;;;;;;5240354;28;20025;-75
2023/03/02 06:59:27;;;;;;;43.30;24.80;;;;;;;;;;5240231;28;20032;-75
2023/03/02 07:01:58;;;;;;;41.93;23.77;;;;;;;;;;5240050;28;20025;-75
2023/03/02 07:04:29;;;;;;;44.00;25.97;;;;;;;;;;5239975;28;20047;-75
2023/03/02 07:07:00;;;;;;;40.67;23.80;;;;;;;;;;5240614;28;20048;-75
2023/03/02 07:09:32;;;;;;;41.73;24.57;;;;;;;;;;5239198;28;20526;-75
2023/03/02 07:12:04;;;;;;;40.17;23.67;;;;;;;;;;5240388;28;20028;-75
2023/03/02 07:14:35;;;;;;;42.70;25.17;;;;;;;;;;5239187;28;20551;-74
2023/03/02 07:17:07;;;;;;;38.65;24.33;;;;;;;;;;5240485;28;20077;-74
2023/03/02 07:19:38;;;;;;;35.28;23.70;;;;;;;;;;5239679;28;20017;-75
2023/03/02 07:22:09;;;;;;;36.75;22.05;;;;;;;;;;5239812;28;20028;-75
2023/03/02 07:24:41;;;;;;;41.08;24.58;;;;;;;;;;5240242;28;20021;-75
2023/03/02 07:27:12;;;;;;;39.55;23.58;;;;;;;;;;5240518;28;20037;-75
2023/03/02 07:29:43;;;;;;;34.25;22.20;;;;;;;;;;5238708;28;20018;-74
2023/03/02 07:32:14;;;;;;;32.67;20.63;;;;;;;;;;5240627;28;20464;-74
2023/03/02 07:34:45;;;;;;;31.08;20.08;;;;;;;;;;5239998;28;20099;-73
2023/03/02 07:37:16;;;;;;;33.60;21.35;;;;;;;;;;5239557;28;20064;-74
2023/03/02 07:39:48;;;;;;;32.45;20.33;;;;;;;;;;5239435;28;20022;-74
2023/03/02 07:42:19;;;;;;;32.97;20.65;;;;;;;;;;5239931;28;20353;-72
2023/03/02 07:44:51;;;;;;;34.15;21.48;;;;;;;;;;5239100;28;20026;-73
2023/03/02 07:47:22;;;;;;;33.25;21.40;;;;;;;;;;5239928;28;20052;-73
2023/03/02 07:49:54;;;;;;;32.58;20.70;;;;;;;;;;5241577;28;20143;-73
2023/03/02 07:52:27;;;;;;;33.95;20.25;;;;;;;;;;5243840;28;20025;-74
2023/03/02 07:54:58;;;;;;;39.33;21.77;;;;;;;;;;5243997;28;20025;-74
2023/03/02 07:57:29;;;;;;;33.67;20.75;;;;;;;;;;5242898;28;20033;-74
2023/03/02 08:00:00;;;;;;;32.50;20.67;;;;;;;;;;5243920;28;20014;-73
2023/03/02 08:02:32;;;;;;;34.50;20.00;;;;;;;;;;5243309;28;20026;-74
2023/03/02 08:05:03;;;;;;;33.47;20.08;;;;;;;;;;5243013;28;20023;-73
2023/03/02 08:07:35;;;;;;;32.78;20.25;;;;;;;;;;5243343;28;20079;-73
2023/03/02 08:10:06;;;;;;;31.70;19.85;;;;;;;;;;5244167;28;20022;-74
2023/03/02 08:12:37;;;;;;;35.28;20.38;;;;;;;;;;5242444;28;20022;-74
2023/03/02 08:15:09;;;;;;;30.42;18.15;;;;;;;;;;5243730;28;20419;-74
2023/03/02 08:17:40;;;;;;;35.05;22.20;;;;;;;;;;5242448;28;20454;-71
2023/03/02 08:20:12;;;;;;;29.27;18.73;;;;;;;;;;5240272;28;20022;-75
2023/03/02 08:22:43;;;;;;;30.27;19.77;;;;;;;;;;5242493;28;20562;-75
2023/03/02 08:25:14;;;;;;;30.75;18.83;;;;;;;;;;5243013;28;20024;-75
2023/03/02 08:27:45;;;;;;;31.27;19.15;;;;;;;;;;5242804;28;20029;-75
2023/03/02 08:30:17;;;;;;;29.85;18.35;;;;;;;;;;5243329;28;20151;-75
2023/03/02 08:32:48;;;;;;;28.77;18.38;;;;;;;;;;5241171;28;20033;-75
2023/03/02 08:35:20;;;;;;;32.38;19.60;;;;;;;;;;5243549;28;20048;-75
2023/03/02 08:37:52;;;;;;;29.95;18.75;;;;;;;;;;5243284;28;20029;-75
2023/03/02 08:40:24;;;;;;;30.13;18.63;;;;;;;;;;5240638;28;20029;-75
2023/03/02 08:42:55;;;;;;;30.55;18.30;;;;;;;;;;5242413;28;20108;-75
2023/03/02 08:45:27;;;;;;;29.73;17.63;;;;;;;;;;5242795;28;20456;-75
2023/03/02 08:47:58;;;;;;;27.25;16.85;;;;;;;;;;5242762;28;20036;-75
2023/03/02 08:50:29;;;;;;;30.25;18.05;;;;;;;;;;5242381;28;20038;-75
2023/03/02 08:53:00;;;;;;;29.90;17.98;;;;;;;;;;5238573;28;20078;-75
2023/03/02 08:55:33;;;;;;;28.85;18.45;;;;;;;;;;5242388;28;20014;-74
2023/03/02 08:58:04;;;;;;;27.27;17.02;;;;;;;;;;5242714;28;20152;-75
2023/03/02 09:00:36;;;;;;;26.88;16.25;;;;;;;;;;5240340;28;20539;-77
2023/03/02 09:03:07;;;;;;;28.50;16.15;;;;;;;;;;5241973;28;20392;-76
2023/03/02 09:05:38;;;;;;;26.20;15.95;;;;;;;;;;5242227;28;20156;-76
2023/03/02 09:08:09;;;;;;;26.00;15.95;;;;;;;;;;5239943;28;20036;-75
2023/03/02 09:10:41;;;;;;;28.70;15.88;;;;;;;;;;5241676;28;20376;-76
2023/03/02 09:13:12;;;;;;;24.10;14.90;;;;;;;;;;5243016;28;20353;-74
2023/03/02 09:15:43;;;;;;;27.48;15.63;;;;;;;;;;5241400;28;20567;-76
2023/03/02 09:18:15;;;;;;;24.83;15.23;;;;;;;;;;5242670;28;20028;-76
2023/03/02 09:20:50;;;;;;;23.50;15.43;;;;;;;;;;5242383;28;20056;-75
2023/03/02 09:23:22;;;;;;;27.60;15.85;;;;;;;;;;5241523;28;20029;-76
2023/03/02 09:25:53;;;;;;;23.45;14.80;;;;;;;;;;5242201;28;20151;-76
2023/03/02 09:28:24;;;;;;;23.10;13.80;;;;;;;;;;5241174;28;20017;-75
2023/03/02 09:30:57;;;;;;;23.25;15.60;;;;;;;;;;5242652;28;20017;-75
2023/03/02 09:33:28;;;;;;;23.75;14.27;;;;;;;;;;5241905;28;20017;-76
2023/03/02 09:36:03;;;;;;;22.30;13.25;;;;;;;;;;5241602;28;20452;-77
2023/03/02 09:38:34;;;;;;;22.52;13.65;;;;;;;;;;5241800;28;20507;-77
2023/03/02 09:41:22;;;;;;;24.70;13.30;;;;;;;;;;5242091;28;20171;-76
2023/03/02 09:43:59;;;;;;;21.27;13.38;;;;;;;;;;5241415;28;20484;-74
2023/03/02 09:46:36;;;;;;;24.50;13.52;;;;;;;;;;5241283;28;20041;-75
2023/03/02 09:49:27;;;;;;;20.63;13.20;;;;;;;;;;5241158;28;20025;-75
2023/03/02 09:51:58;;;;;;;20.75;13.07;;;;;;;;;;5241798;28;20068;-75
2023/03/02 09:54:29;;;;;;;20.83;13.93;;;;;;;;;;5241504;28;20412;-77
2023/03/02 09:57:01;;;;;;;20.63;13.18;;;;;;;;;;5241211;28;20056;-76
2023/03/02 09:59:42;;;;;;;21.70;13.18;;;;;;;;;;5241262;28;20021;-76
2023/03/02 10:02:42;;;;;;;23.92;12.40;;;;;;;;;;5241988;28;20028;-74
2023/03/02 10:05:20;;;;;;;20.00;12.52;;;;;;;;;;5227638;28;20022;-74
2023/03/02 10:07:51;;;;;;;23.27;13.30;;;;;;;;;;5241593;28;20157;-73
2023/03/02 10:10:23;;;;;;;19.15;11.63;;;;;;;;;;5240465;28;20108;-73
2023/03/02 10:12:59;;;;;;;16.50;10.90;;;;;;;;;;5241080;28;20029;-74
2023/03/02 10:15:37;;;;;;;24.50;13.25;;;;;;;;;;5241221;28;20092;-74
2023/03/02 10:18:09;;;;;;;18.33;10.80;;;;;;;;;;5240678;28;20025;-74
2023/03/02 10:20:55;;;;;;;19.85;13.05;;;;;;;;;;5240673;28;20369;-74
2023/03/02 10:23:32;;;;;;;17.38;11.32;;;;;;;;;;5240809;28;20108;-74
2023/03/02 10:26:23;;;;;;;16.67;10.93;;;;;;;;;;5240483;28;20029;-75
2023/03/02 10:28:59;;;;;;;16.27;9.85;;;;;;;;;;5230125;28;20057;-74
2023/03/02 10:31:31;;;;;;;15.95;9.55;;;;;;;;;;5240068;28;20021;-74
2023/03/02 10:34:02;;;;;;;15.88;9.18;;;;;;;;;;5241132;28;20049;-74
2023/03/02 10:36:38;;;;;;;14.65;8.85;;;;;;;;;;5240426;28;20489;-74
2023/03/02 10:39:11;;;;;;;14.35;9.88;;;;;;;;;;5240324;28;20045;-74
2023/03/02 10:41:48;;;;;;;15.77;9.48;;;;;;;;;;5240298;28;20057;-74
2023/03/02 10:44:30;;;;;;;15.82;8.75;;;;;;;;;;5240766;28;20017;-73
2023/03/02 10:47:02;;;;;;;13.43;8.55;;;;;;;;;;5240254;28;20033;-73
2023/03/02 10:49:35;;;;;;;15.57;9.88;;;;;;;;;;5240405;28;20096;-74
2023/03/02 10:52:13;;;;;;;15.13;9.38;;;;;;;;;;5240560;28;20057;-73
2023/03/02 10:54:44;;;;;;;14.45;8.60;;;;;;;;;;5239692;28;20110;-74
2023/03/02 10:57:21;;;;;;;15.45;9.05;;;;;;;;;;5240666;28;20021;-73
2023/03/02 10:59:57;;;;;;;14.85;9.45;;;;;;;;;;5239494;28;20021;-73
2023/03/02 11:02:30;;;;;;;13.20;9.10;;;;;;;;;;5240091;28;20109;-75
2023/03/02 11:05:20;;;;;;;14.05;8.63;;;;;;;;;;5240668;28;20495;-73
2023/03/02 11:07:54;;;;;;;13.38;8.68;;;;;;;;;;5239355;28;20087;-74
2023/03/02 11:10:28;;;;;;;12.75;8.90;;;;;;;;;;5240120;28;20022;-74
2023/03/02 11:13:00;;;;;;;14.23;9.50;;;;;;;;;;5240325;28;20028;-73
2023/03/02 11:15:39;;;;;;;14.10;8.00;;;;;;;;;;5239300;28;20021;-73
2023/03/02 11:18:24;;;;;;;13.60;9.18;;;;;;;;;;5240637;28;20440;-73
2023/03/02 11:20:58;;;;;;;15.43;9.15;;;;;;;;;;5239746;28;20040;-74
2023/03/02 11:23:48;;;;;;;15.70;10.23;;;;;;;;;;5238820;28;20053;-73
2023/03/02 11:26:22;;;;;;;16.55;10.35;;;;;;;;;;5240031;28;20033;-74
2023/03/02 11:28:59;;;;;;;16.42;9.40;;;;;;;;;;5239243;28;20018;-74
2023/03/02 11:31:33;;;;;;;14.75;9.98;;;;;;;;;;5239734;28;20021;-73
2023/03/02 11:34:07;;;;;;;14.93;9.65;;;;;;;;;;5240181;28;20077;-73
2023/03/02 11:36:49;;;;;;;16.58;9.93;;;;;;;;;;5239044;28;20024;-73
2023/03/02 11:39:24;;;;;;;16.13;9.60;;;;;;;;;;5239877;28;20022;-73
2023/03/02 11:41:55;;;;;;;19.90;10.40;;;;;;;;;;5239203;28;20482;-74
2023/03/02 11:44:27;;;;;;;17.17;10.45;;;;;;;;;;5236783;28;20037;-73
2023/03/02 11:47:00;;;;;;;16.35;11.32;;;;;;;;;;5228956;28;20030;-74
2023/03/02 11:49:36;;;;;;;15.18;10.30;;;;;;;;;;5226303;28;20400;-74
2023/03/02 11:52:16;;;;;;;17.52;11.68;;;;;;;;;;5219455;28;20054;-74
2023/03/02 11:54:47;;;;;;;21.30;11.70;;;;;;;;;;5219208;28;20076;-73
2023/03/02 11:57:21;;;;;;;14.18;10.34;;;;;;;;;;5218553;28;20057;-73
2023/03/02 11:59:53;;;;;;;17.08;11.05;;;;;;;;;;5219194;28;20025;-74
2023/03/02 12:02:26;;;;;;;19.05;11.13;;;;;;;;;;5218618;28;20469;-73
2023/03/02 12:05:04;;;;;;;16.45;11.65;;;;;;;;;;5218695;28;20042;-74
2023/03/02 12:07:36;;;;;;;15.05;10.40;;;;;;;;;;5218990;28;20129;-74
2023/03/02 12:10:22;;;;;;;15.48;10.15;;;;;;;;;;5218808;28;20093;-74
2023/03/02 12:13:12;;;;;;;16.98;9.90;;;;;;;;;;5218816;28;20152;-75
2023/03/02 12:15:44;;;;;;;12.30;9.00;;;;;;;;;;5218872;28;20022;-73
2023/03/02 12:18:21;;;;;;;14.20;9.52;;;;;;;;;;5218662;28;20100;-73
2023/03/02 12:21:03;;;;;;;13.68;9.60;;;;;;;;;;5219120;28;20416;-73
2023/03/02 12:23:39;;;;;;;13.10;9.25;;;;;;;;;;5218663;28;20006;-73
2023/03/02 12:26:19;;;;;;;15.38;10.65;;;;;;;;;;5218725;28;20534;-73
2023/03/02 12:29:08;;;;;;;12.88;8.82;;;;;;;;;;5218732;28;20026;-73
2023/03/02 12:31:44;;;;;;;13.48;9.55;;;;;;;;;;5217772;28;20441;-74
2023/03/02 12:34:33;;;;;;;14.40;9.38;;;;;;;;;;5219474;28;20091;-75
2023/03/02 12:37:07;;;;;;;13.57;9.02;;;;;;;;;;5222713;28;20026;-73
2023/03/02 12:39:56;;;;;;;15.20;9.38;;;;;;;;;;5221422;28;20025;-73
2023/03/02 12:42:40;;;;;;;14.15;9.95;;;;;;;;;;5222119;28;20029;-74
2023/03/02 12:45:22;;;;;;;14.48;9.48;;;;;;;;;;5221715;28;20034;-73
2023/03/02 12:48:00;;;;;;;13.45;9.10;;;;;;;;;;5222407;28;20380;-73
2023/03/02 12:50:35;;;;;;;14.52;9.57;;;;;;;;;;5221906;28;20090;-74
2023/03/02 12:53:15;;;;;;;13.65;9.30;;;;;;;;;;5221938;28;20242;-74
2023/03/02 12:55:46;;;;;;;16.88;9.32;;;;;;;;;;5221958;28;20022;-73
2023/03/02 12:58:19;;;;;;;11.60;8.40;;;;;;;;;;5222533;28;20032;-74
2023/03/02 13:00:52;;;;;;;13.75;8.50;;;;;;;;;;5221305;28;20468;-73
2023/03/02 13:03:25;;;;;;;14.13;8.30;;;;;;;;;;5222187;28;20076;-74
2023/03/02 13:06:00;;;;;;;11.75;8.43;;;;;;;;;;5222253;28;20477;-74
2023/03/02 13:08:32;;;;;;;12.48;8.60;;;;;;;;;;5221173;28;20014;-73
2023/03/02 13:11:03;;;;;;;12.13;8.50;;;;;;;;;;5222017;28;20045;-74
2023/03/02 13:13:37;;;;;;;11.95;7.55;;;;;;;;;;5220827;28;20464;-74
2023/03/02 13:16:20;;;;;;;10.88;6.85;;;;;;;;;;5222179;28;20421;-74
2023/03/02 13:18:55;;;;;;;11.60;7.55;;;;;;;;;;5221957;28;20034;-74
2023/03/02 13:21:29;;;;;;;12.05;7.97;;;;;;;;;;5220546;28;20022;-74
2023/03/02 13:24:00;;;;;;;12.95;8.98;;;;;;;;;;5221855;28;20026;-74
2023/03/02 13:26:33;;;;;;;11.10;7.07;;;;;;;;;;5221265;28;20088;-72
2023/03/02 13:29:11;;;;;;;13.88;7.97;;;;;;;;;;5221111;28;20064;-74
2023/03/02 13:31:42;;;;;;;10.38;6.95;;;;;;;;;;5221154;28;20459;-72
2023/03/02 13:34:27;;;;;;;10.73;7.78;;;;;;;;;;5220805;28;20102;-70
2023/03/02 13:36:58;;;;;;;11.00;7.28;;;;;;;;;;5221767;28;20017;-69
2023/03/02 13:39:30;;;;;;;10.85;7.38;;;;;;;;;;5220582;28;20026;-72
2023/03/02 13:42:02;;;;;;;9.90;7.18;;;;;;;;;;5220626;28;20022;-73
2023/03/02 13:44:34;;;;;;;11.15;6.50;;;;;;;;;;5221072;28;20523;-73
2023/03/02 13:47:19;;;;;;;10.65;7.20;;;;;;;;;;5226517;28;20043;-73
2023/03/02 13:49:51;;;;;;;10.38;7.43;;;;;;;;;;5240353;28;20025;-73
2023/03/02 13:52:26;;;;;;;8.27;6.18;;;;;;;;;;5241929;28;20025;-72
2023/03/02 13:54:58;;;;;;;9.85;6.15;;;;;;;;;;5241837;28;20108;-73
2023/03/02 13:57:30;;;;;;;9.98;7.28;;;;;;;;;;5240441;28;20092;-73
2023/03/02 14:00:02;;;;;;;8.85;5.93;;;;;;;;;;5240954;28;20052;-73
2023/03/02 14:02:34;;;;;;;9.05;6.70;;;;;;;;;;5240418;28;20021;-74
2023/03/02 14:05:05;;;;;;;11.90;6.35;;;;;;;;;;5241593;28;20029;-72
2023/03/02 14:07:36;;;;;;;8.65;6.15;;;;;;;;;;5240976;28;20033;-73
2023/03/02 14:10:08;;;;;;;8.82;6.13;;;;;;;;;;5241107;28;20021;-72
2023/03/02 14:12:41;;;;;;;10.35;6.72;;;;;;;;;;5240837;28;20025;-72
2023/03/02 14:15:13;;;;;;;9.57;5.60;;;;;;;;;;5241670;28;20021;-72
2023/03/02 14:17:47;;;;;;;9.27;6.63;;;;;;;;;;5240103;28;20021;-72
2023/03/02 14:20:19;;;;;;;8.43;5.85;;;;;;;;;;5241058;28;20026;-72
2023/03/02 14:22:50;;;;;;;9.45;6.63;;;;;;;;;;5241227;28;20022;-73
2023/03/02 14:25:21;;;;;;;8.65;6.25;;;;;;;;;;5240091;28;20064;-69
2023/03/02 14:27:52;;;;;;;8.60;6.40;;;;;;;;;;5240708;28;20459;-72
2023/03/02 14:30:24;;;;;;;9.88;6.65;;;;;;;;;;5239871;28;20101;-72
2023/03/02 14:32:55;;;;;;;9.38;6.28;;;;;;;;;;5241049;28;20068;-73
2023/03/02 14:35:26;;;;;;;9.13;5.05;;;;;;;;;;5240627;28;20432;-73
2023/03/02 14:37:57;;;;;;;11.85;6.70;;;;;;;;;;5240237;28;20013;-72
2023/03/02 14:40:29;;;;;;;9.23;6.35;;;;;;;;;;5240004;28;20026;-73
2023/03/02 14:43:00;;;;;;;9.82;6.32;;;;;;;;;;5240846;28;20021;-73
2023/03/02 14:45:31;;;;;;;9.35;6.20;;;;;;;;;;5239553;28;20029;-73
2023/03/02 14:48:02;;;;;;;10.35;5.88;;;;;;;;;;5240722;28;20026;-74
2023/03/02 14:50:36;;;;;;;8.93;5.15;;;;;;;;;;5240033;28;20095;-73
2023/03/02 14:53:14;;;;;;;7.78;5.22;;;;;;;;;;5240096;28;20032;-74
2023/03/02 14:55:45;;;;;;;8.70;5.25;;;;;;;;;;5239510;28;20047;-74
2023/03/02 14:58:18;;;;;;;8.93;5.72;;;;;;;;;;5239845;28;20074;-73
2023/03/02 15:00:50;;;;;;;8.65;6.28;;;;;;;;;;5238289;28;20068;-73